Time;durP1;ratioP1;P1;durP2;ratioP2;P2;SDS_P1;SDS_P2;PMS_P1;PMS_P2;Temp;Humidity;BMP_temperature;BMP_pressure;BME280_temperature;BME280_humidity;BME280_pressure;Samples;Min_cycle;Max_cycle;Signal;HPM_P1;HPM_P2
2022/10/21 00:01:39;;;;;;;;;2.25;1.75;;;;;18.10;69.12;99959.75;4956170;28;45816;-81
2022/10/21 00:04:05;;;;;;;;;1.50;1.50;;;;;18.11;69.12;99955.28;4956528;28;46026;-79
2022/10/21 00:06:30;;;;;;;;;2.00;1.00;;;;;18.12;69.02;99960.41;4956479;28;46523;-80
2022/10/21 00:08:57;;;;;;;;;1.00;0.25;;;;;18.12;69.48;99955.09;4956585;28;45527;-81
2022/10/21 00:11:23;;;;;;;;;1.75;1.75;;;;;18.06;69.42;99947.84;4956168;28;45779;-79
2022/10/21 00:13:49;;;;;;;;;1.00;1.00;;;;;18.12;69.03;99943.66;4956210;28;45590;-78
2022/10/21 00:19:38;;;;;;;;;1.75;1.75;;;;;18.10;69.65;99946.47;4956012;28;45919;-80
2022/10/21 00:22:04;;;;;;;;;3.00;2.00;;;;;18.07;69.64;99935.41;4954753;28;45784;-80
2022/10/21 00:24:29;;;;;;;;;1.00;1.00;;;;;18.07;69.69;99938.06;4956832;28;45897;-79
2022/10/21 00:26:55;;;;;;;;;2.00;1.00;;;;;18.06;69.22;99937.22;4956413;28;46566;-79
2022/10/21 00:29:20;;;;;;;;;1.00;1.00;;;;;18.06;69.55;99931.94;4955902;28;46191;-80
2022/10/21 00:31:45;;;;;;;;;2.00;1.50;;;;;18.07;69.02;99932.75;4956044;28;45649;-80
2022/10/21 00:34:12;;;;;;;;;2.25;1.75;;;;;18.08;69.09;99931.78;4956131;28;45681;-79
2022/10/21 00:36:38;;;;;;;;;2.25;1.50;;;;;18.07;69.15;99936.25;4938407;28;47740;-80
2022/10/21 00:39:03;;;;;;;;;2.00;1.00;;;;;18.08;69.14;99932.59;4938201;28;47634;-80
2022/10/21 00:41:28;;;;;;;;;2.50;2.00;;;;;18.06;69.22;99923.97;4955772;28;45563;-79
2022/10/21 00:44:01;;;;;;;;;2.00;2.00;;;;;18.08;69.08;99931.78;4954988;28;45534;-80
2022/10/21 00:50:00;;;;;;;;;2.00;2.00;;;;;18.04;69.69;99912.72;4955415;28;45782;-80
2022/10/21 00:52:28;;;;;;;;;1.25;1.00;;;;;18.07;69.64;99917.69;4955577;28;45708;-78
2022/10/21 00:54:59;;;;;;;;;2.50;2.50;;;;;18.07;69.58;99911.56;4955424;28;45517;-79
2022/10/21 00:57:26;;;;;;;;;3.25;3.00;;;;;18.06;69.14;99907.25;4955808;28;46594;-79
2022/10/21 01:00:00;;;;;;;;;2.00;2.00;;;;;18.01;69.29;99895.34;4955708;28;45882;-79
2022/10/21 01:02:27;;;;;;;;;2.25;2.00;;;;;18.04;69.73;99902.09;4955347;28;45756;-81
2022/10/21 01:04:58;;;;;;;;;1.50;1.50;;;;;18.04;69.75;99886.19;4954405;28;46140;-79
2022/10/21 01:07:24;;;;;;;;;3.00;2.00;;;;;18.04;69.62;99881.72;4955247;28;46554;-78
2022/10/21 01:09:49;;;;;;;;;2.00;2.00;;;;;18.04;69.64;99871.13;4955547;28;46241;-79
2022/10/21 01:12:38;;;;;;;;;4.25;2.25;;;;;18.07;69.61;99861.19;4955508;28;45618;-81
2022/10/21 01:18:44;;;;;;;;;1.50;1.50;;;;;18.06;69.29;99856.88;4955042;28;46154;-81
2022/10/21 01:21:53;;;;;;;;;2.25;2.25;;;;;18.03;69.66;99853.56;4951981;28;47114;-79
2022/10/21 01:25:00;;;;;;;;;2.00;1.00;;;;;18.05;69.74;99853.41;4876447;29;45640;-78
2022/10/21 01:27:41;;;;;;;;;2.00;1.50;;;;;18.03;69.33;99848.25;4839322;29;45622;-80
2022/10/21 01:30:27;;;;;;;;;2.00;2.00;;;;;18.07;69.75;99845.28;4839171;29;46564;-79
2022/10/21 01:33:34;;;;;;;;;2.75;2.00;;;;;18.07;69.46;99846.09;4838638;29;46936;-81
2022/10/21 01:36:15;;;;;;;;;1.00;1.00;;;;;17.98;69.18;99844.47;4820740;29;45591;-79
2022/10/21 01:38:49;;;;;;;;;1.00;1.00;;;;;18.04;69.27;99854.38;4821193;29;45755;-75
2022/10/21 01:41:31;;;;;;;;;2.00;2.00;;;;;18.10;69.48;99866.94;4820469;29;46346;-81
2022/10/21 01:44:24;;;;;;;;;3.25;2.00;;;;;18.10;69.43;99874.06;4820520;29;45960;-79
2022/10/21 01:47:11;;;;;;;;;2.50;2.00;;;;;18.10;69.66;99863.47;4820685;29;45783;-79
2022/10/21 01:49:42;;;;;;;;;2.00;2.00;;;;;18.10;69.81;99869.59;4820550;29;46000;-78
2022/10/21 01:52:10;;;;;;;;;3.00;2.00;;;;;18.05;69.50;99871.94;4820340;29;46398;-80
2022/10/21 01:54:48;;;;;;;;;2.75;2.50;;;;;18.07;69.51;99901.78;4820358;29;46569;-81
2022/10/21 01:57:18;;;;;;;;;1.50;1.50;;;;;18.12;69.76;99920.63;4820420;29;45618;-78
2022/10/21 01:59:45;;;;;;;;;2.00;2.00;;;;;18.09;70.17;99930.75;4819937;29;45945;-78
2022/10/21 02:02:12;;;;;;;;;2.00;2.00;;;;;18.08;69.88;99939.72;4820138;29;45626;-77
2022/10/21 02:04:41;;;;;;;;;2.25;2.00;;;;;18.11;70.37;99960.56;4862154;29;45623;-77
2022/10/21 02:07:07;;;;;;;;;1.50;1.50;;;;;18.03;70.31;99964.91;4895168;29;45754;-78
2022/10/21 02:09:32;;;;;;;;;4.00;2.00;;;;;18.07;71.26;99981.31;4894834;29;46004;-81
2022/10/21 02:12:00;;;;;;;;;3.25;3.00;;;;;18.03;71.54;99979.97;4909769;28;46442;-81
2022/10/21 02:14:54;;;;;;;;;4.00;2.00;;;;;17.96;72.08;99993.13;4954539;28;46741;-82
2022/10/21 02:17:21;;;;;;;;;5.00;3.25;;;;;17.92;71.83;99980.38;4951493;28;45953;-79
2022/10/21 02:19:47;;;;;;;;;2.75;2.00;;;;;17.89;72.08;99962.16;4954192;28;45652;-78
2022/10/21 02:22:17;;;;;;;;;3.25;2.25;;;;;17.87;72.38;99953.53;4954551;28;46375;-79
2022/10/21 02:24:51;;;;;;;;;2.50;2.00;;;;;17.87;72.33;99932.34;4953895;28;45715;-80
2022/10/21 02:27:18;;;;;;;;;2.00;2.00;;;;;17.87;72.71;99927.88;4954299;28;45641;-81
2022/10/21 02:29:47;;;;;;;;;3.00;3.00;;;;;17.88;73.03;99907.50;4953846;28;45822;-79
2022/10/21 02:32:27;;;;;;;;;2.75;2.00;;;;;17.86;72.79;99891.78;4953065;28;46480;-78
2022/10/21 02:35:11;;;;;;;;;5.00;3.25;;;;;17.86;73.22;99867.94;4953503;28;46542;-77
2022/10/21 02:38:08;;;;;;;;;2.75;2.00;;;;;17.86;73.55;99816.75;4954431;28;45691;-79
2022/10/21 02:40:39;;;;;;;;;2.75;2.75;;;;;17.81;73.33;99789.97;4954153;28;45907;-82
2022/10/21 02:43:13;;;;;;;;;2.25;1.50;;;;;17.89;73.00;99790.72;4954024;28;45665;-81
2022/10/21 02:49:00;;;;;;;;;3.00;3.00;;;;;17.94;72.64;99795.47;4953870;28;45550;-80
2022/10/21 02:51:25;;;;;;;;;5.75;2.00;;;;;17.98;72.86;99802.91;4954139;28;45428;-82
2022/10/21 02:53:50;;;;;;;;;3.25;2.00;;;;;17.96;73.32;99790.84;4954014;28;46391;-77
2022/10/21 02:56:16;;;;;;;;;3.75;2.00;;;;;18.03;73.22;99797.06;4936672;28;47120;-81
2022/10/21 02:58:41;;;;;;;;;2.25;2.25;;;;;18.05;72.82;99800.38;4954199;28;45574;-79
2022/10/21 03:04:28;;;;;;;;;2.75;2.00;;;;;18.06;73.39;99811.81;4954230;28;45633;-80
2022/10/21 03:06:53;;;;;;;;;2.75;2.00;;;;;18.04;73.34;99809.31;4954235;28;45769;-80
2022/10/21 03:09:19;;;;;;;;;4.50;4.25;;;;;18.02;73.67;99814.00;4954637;28;45556;-79
2022/10/21 03:11:44;;;;;;;;;2.00;2.00;;;;;18.03;73.30;99824.41;4957256;28;45708;-79
2022/10/21 03:14:09;;;;;;;;;3.75;1.50;;;;;18.05;73.69;99840.13;4957687;28;45705;-79
2022/10/21 03:19:57;;;;;;;;;2.50;2.50;;;;;18.08;73.09;99874.28;4960754;28;45679;-80
2022/10/21 03:22:22;;;;;;;;;3.75;2.25;;;;;18.04;73.80;99870.28;4965689;28;45641;-78
2022/10/21 03:24:47;;;;;;;;;2.00;2.00;;;;;18.11;73.24;99894.28;4967073;28;47846;-79
2022/10/21 03:27:13;;;;;;;;;2.00;1.00;;;;;18.10;73.31;99880.22;4971751;28;45559;-77
2022/10/21 03:29:38;;;;;;;;;2.00;2.00;;;;;18.12;73.61;99874.72;4955288;28;45783;-79
2022/10/21 03:35:26;;;;;;;;;2.50;2.50;;;;;18.05;73.38;99845.44;4962571;28;45985;-77
2022/10/21 03:37:52;;;;;;;;;3.00;3.00;;;;;17.95;73.49;99813.88;4962637;28;46052;-81
2022/10/21 03:40:17;;;;;;;;;1.75;1.75;;;;;18.11;73.68;99841.25;4958773;28;45686;-81
2022/10/21 03:42:42;;;;;;;;;2.50;2.00;;;;;18.13;73.57;99855.19;4940269;28;45904;-79
2022/10/21 03:45:08;;;;;;;;;2.00;1.75;;;;;18.09;73.65;99857.34;4958086;28;45842;-80
2022/10/21 03:50:55;;;;;;;;;4.25;2.75;;;;;17.99;73.85;99840.84;4955017;28;45872;-77
2022/10/21 03:53:21;;;;;;;;;1.00;1.00;;;;;18.10;73.39;99876.72;4957230;28;45866;-78
2022/10/21 03:55:48;;;;;;;;;2.25;2.00;;;;;18.12;73.49;99878.22;4956466;28;45803;-80
2022/10/21 03:58:14;;;;;;;;;2.00;1.25;;;;;18.09;73.69;99856.50;4956862;28;46014;-79
2022/10/21 04:00:39;;;;;;;;;3.50;2.00;;;;;18.10;73.27;99864.28;4956463;28;46689;-81
2022/10/21 04:06:26;;;;;;;;;2.00;2.00;;;;;18.07;73.59;99883.22;4956456;28;46202;-80
2022/10/21 04:08:52;;;;;;;;;2.00;1.75;;;;;17.89;73.54;99845.53;4956394;28;46527;-81
2022/10/21 04:11:17;;;;;;;;;2.00;1.00;;;;;18.03;73.48;99866.81;4956167;28;45598;-79
2022/10/21 04:13:43;;;;;;;;;2.75;2.50;;;;;18.05;73.95;99874.59;4938998;28;45944;-79
2022/10/21 04:16:13;;;;;;;;;3.25;2.00;;;;;18.04;73.39;99872.94;4956411;28;46686;-81
2022/10/21 04:22:00;;;;;;;;;3.00;2.00;;;;;17.98;73.49;99869.16;4955976;28;45591;-81
2022/10/21 04:24:26;;;;;;;;;2.75;2.75;;;;;17.99;73.53;99862.03;4956208;28;45751;-78
2022/10/21 04:26:51;;;;;;;;;3.75;2.00;;;;;18.03;73.26;99868.63;4956155;28;46263;-78
2022/10/21 04:29:16;;;;;;;;;2.50;2.00;;;;;18.01;73.38;99868.00;4956348;28;45915;-82
2022/10/21 04:31:42;;;;;;;;;2.25;2.25;;;;;18.03;73.62;99880.06;4956036;28;45662;-79
2022/10/21 04:34:07;;;;;;;;;4.00;3.00;;;;;18.02;73.94;99872.31;4956382;28;45559;-81
2022/10/21 04:36:32;;;;;;;;;4.00;3.00;;;;;18.03;73.63;99871.28;4956076;28;46480;-76
2022/10/21 04:38:58;;;;;;;;;3.50;3.00;;;;;18.04;74.03;99867.66;4956305;28;45694;-79
2022/10/21 04:41:24;;;;;;;;;3.00;3.00;;;;;18.03;73.60;99876.59;4955670;28;46086;-80
2022/10/21 04:43:49;;;;;;;;;3.50;3.00;;;;;18.04;73.82;99891.50;4955571;28;45727;-77
2022/10/21 04:46:15;;;;;;;;;5.00;4.00;;;;;17.98;73.86;99863.88;4955664;28;45813;-79
2022/10/21 04:52:16;;;;;;;;;4.75;4.00;;;;;17.94;74.02;99853.78;4954138;28;45902;-81
2022/10/21 04:54:42;;;;;;;;;5.00;4.25;;;;;18.07;74.15;99869.13;4955921;28;45812;-78
2022/10/21 04:57:07;;;;;;;;;5.00;4.75;;;;;18.08;74.28;99868.13;4955545;28;46490;-79
2022/10/21 04:59:32;;;;;;;;;6.50;5.00;;;;;18.08;74.30;99868.13;4955726;28;46002;-77
2022/10/21 05:01:58;;;;;;;;;4.00;4.00;;;;;18.08;73.98;99874.28;4955520;28;45565;-78
2022/10/21 05:04:23;;;;;;;;;6.00;5.25;;;;;18.07;73.63;99871.78;4955749;28;45809;-79
2022/10/21 05:06:48;;;;;;;;;3.75;3.00;;;;;18.08;74.47;99862.84;4955217;28;46473;-79
2022/10/21 05:09:14;;;;;;;;;5.00;4.25;;;;;18.06;74.25;99862.19;4955756;28;45682;-80
2022/10/21 05:11:39;;;;;;;;;5.50;4.75;;;;;18.06;74.43;99857.69;4955175;28;45593;-80
2022/10/21 05:14:04;;;;;;;;;3.00;3.00;;;;;18.05;74.63;99871.94;4955595;28;45727;-80
2022/10/21 05:16:30;;;;;;;;;4.75;4.00;;;;;18.04;74.33;99868.47;4954741;28;46303;-77
2022/10/21 05:22:17;;;;;;;;;5.00;4.25;;;;;18.06;74.29;99894.00;4954969;28;45808;-77
2022/10/21 05:24:42;;;;;;;;;6.50;4.50;;;;;18.07;74.58;99896.47;4955276;28;45546;-77
2022/10/21 05:27:07;;;;;;;;;5.00;4.00;;;;;18.05;74.61;99898.47;4954811;28;46251;-76
2022/10/21 05:29:33;;;;;;;;;4.25;4.00;;;;;18.09;74.42;99901.59;4955368;28;46082;-79
2022/10/21 05:31:58;;;;;;;;;5.50;4.00;;;;;18.06;74.53;99897.47;4955407;28;45577;-78
2022/10/21 05:37:46;;;;;;;;;4.00;4.00;;;;;18.10;74.10;99884.69;4954739;28;45558;-79
2022/10/21 05:40:11;;;;;;;;;4.25;4.00;;;;;18.08;73.88;99871.63;4955178;28;46024;-78
2022/10/21 05:42:36;;;;;;;;;5.00;4.50;;;;;18.05;74.41;99861.34;4954990;28;46072;-79
2022/10/21 05:45:02;;;;;;;;;5.00;3.25;;;;;18.11;73.96;99879.22;4955248;28;45672;-78
2022/10/21 05:47:27;;;;;;;;;5.25;4.25;;;;;18.10;74.23;99887.31;4954939;28;46625;-79
2022/10/21 05:49:53;;;;;;;;;4.25;3.00;;;;;18.07;74.26;99899.13;4954550;28;46971;-80
2022/10/21 05:52:18;;;;;;;;;5.50;4.75;;;;;18.12;73.74;99895.94;4954530;28;45659;-79
2022/10/21 05:54:43;;;;;;;;;4.50;4.50;;;;;18.14;74.11;99891.31;4954321;28;45555;-78
2022/10/21 05:57:09;;;;;;;;;4.25;4.00;;;;;18.13;74.12;99898.44;4954782;28;47240;-77
2022/10/21 05:59:36;;;;;;;;;5.00;4.25;;;;;18.15;73.79;99908.84;4955127;28;46440;-77
2022/10/21 06:02:01;;;;;;;;;5.00;4.50;;;;;18.16;73.98;99929.88;4955509;28;45570;-76
2022/10/21 06:07:48;;;;;;;;;4.50;4.00;;;;;18.18;74.06;99941.16;4955244;28;45891;-74
2022/10/21 06:10:15;;;;;;;;;5.75;5.00;;;;;18.19;73.84;99952.59;4969955;28;45718;-75
2022/10/21 06:12:41;;;;;;;;;5.00;4.00;;;;;18.18;73.58;99967.66;4954695;28;45486;-77
2022/10/21 06:15:07;;;;;;;;;5.25;4.75;;;;;18.09;73.76;99960.72;4954445;28;45892;-79
2022/10/21 06:17:32;;;;;;;;;5.00;4.50;;;;;18.20;74.21;99980.72;4953890;28;46384;-76
2022/10/21 06:19:57;;;;;;;;;4.25;4.25;;;;;18.17;73.93;99965.19;4952976;28;48460;-73
2022/10/21 06:22:23;;;;;;;;;27.75;26.50;;;;;18.20;73.76;99967.47;4953952;28;45629;-75
2022/10/21 06:24:49;;;;;;;;;10.00;10.00;;;;;18.18;73.83;99966.84;4953764;28;45773;-75
2022/10/21 06:27:15;;;;;;;;;7.00;5.50;;;;;18.21;73.74;99971.78;4954539;28;45830;-74
2022/10/21 06:29:40;;;;;;;;;7.50;6.00;;;;;18.21;73.92;99975.25;4954519;28;46020;-79
2022/10/21 06:32:05;;;;;;;;;7.00;6.00;;;;;18.23;73.83;99985.72;4952528;28;45717;-78
2022/10/21 06:37:52;;;;;;;;;4.00;3.00;;;;;18.24;73.94;100014.72;4954234;28;46293;-76
2022/10/21 06:40:18;;;;;;;;;7.50;7.25;;;;;18.20;74.13;100008.06;4954108;28;45600;-76
2022/10/21 06:42:43;;;;;;;;;5.50;4.00;;;;;18.21;74.04;99998.31;4954356;28;45763;-73
2022/10/21 06:45:09;;;;;;;;;5.50;5.00;;;;;18.25;73.84;100004.91;4955028;28;45800;-73
2022/10/21 06:47:34;;;;;;;;;3.25;3.00;;;;;18.26;74.05;100011.88;4957530;28;46221;-77
2022/10/21 06:53:21;;;;;;;;;5.00;4.00;;;;;18.25;73.74;100010.22;4955156;28;45780;-73
2022/10/21 06:55:47;;;;;;;;;5.00;4.25;;;;;18.25;73.87;100020.81;4957078;28;45795;-73
2022/10/21 06:58:12;;;;;;;;;4.00;4.00;;;;;18.26;74.18;100012.69;4957493;28;46463;-75
2022/10/21 07:00:37;;;;;;;;;5.50;5.50;;;;;18.25;74.50;100008.38;4957456;28;45577;-74
2022/10/21 07:03:03;;;;;;;;;3.75;3.25;;;;;18.24;74.71;100017.38;4957492;28;45698;-76
2022/10/21 07:05:28;;;;;;;;;5.50;4.50;;;;;18.23;74.63;100013.06;4956135;28;45935;-74
2022/10/21 07:07:53;;;;;;;;;5.00;3.00;;;;;18.16;74.24;99998.81;4957311;28;46275;-73
2022/10/21 07:10:19;;;;;;;;;7.00;5.00;;;;;18.20;74.73;100002.78;4957141;28;46498;-75
2022/10/21 07:12:45;;;;;;;;;3.00;3.00;;;;;18.21;74.47;100004.44;4957208;28;45671;-76
2022/10/21 07:15:11;;;;;;;;;6.00;5.00;;;;;18.22;74.22;100008.75;4957210;28;45659;-73
2022/10/21 07:17:36;;;;;;;;;6.00;5.00;;;;;18.22;74.46;100026.47;4957495;28;46242;-75
2022/10/21 07:23:23;;;;;;;;;5.00;4.00;;;;;18.20;73.93;100061.13;4956850;28;45630;-73
2022/10/21 07:25:48;;;;;;;;;5.25;5.00;;;;;18.23;74.55;100073.22;4957487;28;45891;-74
2022/10/21 07:28:14;;;;;;;;;4.00;3.00;;;;;18.21;74.47;100064.59;4957141;28;46191;-75
2022/10/21 07:30:41;;;;;;;;;4.00;4.00;;;;;18.22;74.50;100043.22;4956895;28;45949;-74
2022/10/21 07:33:07;;;;;;;;;7.50;5.25;;;;;18.22;74.63;100037.91;4956938;28;45654;-75
2022/10/21 07:35:32;;;;;;;;;5.00;4.00;;;;;18.20;74.26;100044.38;4957093;28;45967;-74
2022/10/21 07:37:57;;;;;;;;;4.00;4.00;;;;;18.22;74.40;100064.44;4955899;28;47207;-74
2022/10/21 07:40:23;;;;;;;;;4.50;3.75;;;;;18.21;74.44;100069.91;4956930;28;45649;-73
2022/10/21 07:42:48;;;;;;;;;4.00;4.00;;;;;18.18;74.29;100065.78;4956971;28;45751;-76
2022/10/21 07:45:13;;;;;;;;;3.50;3.00;;;;;18.20;74.46;100065.59;4939543;28;45656;-75
2022/10/21 07:47:39;;;;;;;;;3.25;3.00;;;;;18.22;74.54;100067.09;4955366;28;47511;-72
2022/10/21 07:53:26;;;;;;;;;4.25;4.00;;;;;18.23;74.00;100065.25;4956172;28;45827;-72
2022/10/21 07:56:01;;;;;;;;;2.75;2.75;;;;;18.25;74.13;100074.69;4956050;28;45669;-73
2022/10/21 07:58:26;;;;;;;;;3.00;2.00;;;;;18.26;74.35;100076.34;4956494;28;45936;-72
2022/10/21 08:00:51;;;;;;;;;4.00;3.00;;;;;18.27;74.07;100072.69;4956053;28;46314;-74
2022/10/21 08:03:17;;;;;;;;;3.00;3.00;;;;;18.24;74.14;100065.09;4956259;28;45740;-75
2022/10/21 08:05:42;;;;;;;;;2.00;2.00;;;;;18.30;73.97;100077.66;4956479;28;45827;-75
2022/10/21 08:08:07;;;;;;;;;4.50;2.50;;;;;18.26;74.59;100071.03;4956379;28;47614;-74
2022/10/21 08:10:39;;;;;;;;;4.00;3.00;;;;;18.33;74.05;100087.94;4938808;28;46073;-75
2022/10/21 08:13:04;;;;;;;;;4.25;3.00;;;;;18.34;74.10;100089.59;4956503;28;45691;-74
2022/10/21 08:15:29;;;;;;;;;2.50;2.50;;;;;18.35;74.06;100082.47;4956459;28;45701;-73
2022/10/21 08:17:55;;;;;;;;;2.50;2.00;;;;;18.35;73.97;100077.16;4956414;28;46298;-73
2022/10/21 08:23:43;;;;;;;;;4.00;3.50;;;;;18.45;74.13;100078.59;4955950;28;45702;-72
2022/10/21 08:26:14;;;;;;;;;1.75;1.50;;;;;18.48;73.99;100085.38;4956533;28;45739;-73
2022/10/21 08:28:40;;;;;;;;;2.00;1.50;;;;;18.49;74.40;100086.22;4956262;28;45658;-74
2022/10/21 08:31:14;;;;;;;;;3.00;3.00;;;;;18.52;74.22;100091.16;4955771;28;46380;-74
2022/10/21 08:33:39;;;;;;;;;2.00;2.00;;;;;18.54;73.88;100079.41;4956304;28;45707;-73
2022/10/21 08:36:06;;;;;;;;;3.00;3.00;;;;;18.56;74.59;100085.38;4956443;28;45502;-73
2022/10/21 08:38:32;;;;;;;;;3.00;2.00;;;;;18.45;74.39;100064.50;4956099;28;45625;-73
2022/10/21 08:40:59;;;;;;;;;3.00;3.00;;;;;18.55;74.36;100090.84;4955907;28;45625;-74
2022/10/21 08:43:28;;;;;;;;;2.50;2.00;;;;;18.59;74.20;100093.00;4955894;28;45666;-71
2022/10/21 08:46:00;;;;;;;;;4.00;3.75;;;;;18.58;74.34;100091.31;4955965;28;45946;-73
2022/10/21 08:54:46;;;;;;;;;3.50;3.00;;;;;18.58;74.02;100096.63;4954268;28;45562;-73
2022/10/21 08:57:12;;;;;;;;;3.50;3.50;;;;;18.60;74.11;100099.13;4956054;28;45691;-73
2022/10/21 08:59:41;;;;;;;;;3.25;3.25;;;;;18.61;74.05;100100.78;4955953;28;45959;-72
2022/10/21 09:02:34;;;;;;;;;4.00;3.50;;;;;18.64;74.17;100105.72;4955413;28;46334;-72
2022/10/21 09:05:27;;;;;;;;;3.50;3.25;;;;;18.68;74.33;100099.06;4970514;28;45797;-73
2022/10/21 09:08:00;;;;;;;;;5.00;3.75;;;;;18.69;74.04;100106.88;4955000;28;45652;-71
2022/10/21 09:10:42;;;;;;;;;4.00;3.00;;;;;18.73;74.39;100099.41;4955631;28;45632;-73
2022/10/21 09:13:33;;;;;;;;;4.00;4.00;;;;;18.75;74.36;100100.88;4955347;28;46243;-73
2022/10/21 09:16:34;;;;;;;;;34.50;29.25;;;;;18.80;74.26;100098.50;4955438;28;45673;-74
2022/10/21 09:22:40;;;;;;;;;4.00;4.00;;;;;18.98;74.46;100097.41;4955129;28;46011;-73
2022/10/21 09:25:24;;;;;;;;;3.00;2.00;;;;;19.03;74.39;100098.56;4955012;28;47228;-72
2022/10/21 09:27:51;;;;;;;;;4.25;3.75;;;;;19.07;74.42;100097.19;4955206;28;45689;-73
2022/10/21 09:30:20;;;;;;;;;5.00;3.75;;;;;19.13;74.47;100106.28;4955322;28;45887;-72
2022/10/21 09:32:50;;;;;;;;;4.00;4.00;;;;;19.16;74.00;100100.63;4955211;28;45668;-73
2022/10/21 09:38:55;;;;;;;;;4.00;3.75;;;;;19.28;73.87;100104.50;4955162;28;45644;-74
2022/10/21 09:41:25;;;;;;;;;4.00;4.00;;;;;19.32;74.01;100091.72;4954901;28;45904;-74
2022/10/21 09:43:51;;;;;;;;;3.25;3.25;;;;;19.38;74.31;100088.34;4954732;28;47681;-76
2022/10/21 09:46:17;;;;;;;;;4.50;3.00;;;;;19.40;73.96;100083.66;4955243;28;45578;-74
2022/10/21 09:48:45;;;;;;;;;4.00;4.00;;;;;19.40;73.79;100088.97;4954850;28;45932;-71
2022/10/21 09:54:36;;;;;;;;;4.00;3.50;;;;;19.46;73.65;100104.25;4954121;28;45851;-72
2022/10/21 09:57:30;;;;;;;;;5.50;4.00;;;;;19.48;73.80;100097.75;4955265;28;45998;-73
2022/10/21 10:00:01;;;;;;;;;3.75;2.75;;;;;19.51;73.45;100097.38;4954612;28;45708;-74
2022/10/21 10:02:35;;;;;;;;;9.50;8.25;;;;;19.56;73.71;100105.66;4954542;28;45858;-76
2022/10/21 10:05:04;;;;;;;;;5.00;4.25;;;;;19.59;73.55;100107.13;4954458;28;47054;-72
2022/10/21 10:07:33;;;;;;;;;5.00;5.00;;;;;19.64;73.38;100107.44;4954780;28;47056;-74
2022/10/21 10:09:59;;;;;;;;;6.00;4.00;;;;;19.64;73.27;100104.75;4954693;28;45515;-74
2022/10/21 10:12:27;;;;;;;;;7.75;6.75;;;;;19.67;73.57;100104.38;4954963;28;45482;-75
2022/10/21 10:14:54;;;;;;;;;4.75;4.75;;;;;19.66;73.00;100108.88;4954274;28;47879;-74
2022/10/21 10:17:22;;;;;;;;;7.75;6.00;;;;;19.72;73.12;100110.00;4954751;28;46185;-74
2022/10/21 10:20:03;;;;;;;;;5.75;4.75;;;;;19.74;72.77;100104.50;4954299;28;45934;-77
2022/10/21 10:22:37;;;;;;;;;5.25;5.25;;;;;19.75;72.60;100104.34;4954674;28;45716;-76
2022/10/21 10:25:17;;;;;;;;;7.25;5.75;;;;;19.76;72.71;100105.97;4954402;28;45733;-75
2022/10/21 10:27:52;;;;;;;;;5.00;5.00;;;;;19.80;72.41;100109.94;4954674;28;46077;-75
2022/10/21 10:30:19;;;;;;;;;5.00;3.50;;;;;19.79;72.20;100107.44;4954647;28;45670;-73
2022/10/21 10:32:46;;;;;;;;;5.75;4.00;;;;;19.80;71.99;100101.13;4954502;28;45538;-76
2022/10/21 10:35:21;;;;;;;;;6.75;4.00;;;;;19.93;72.02;100109.28;4954296;28;45662;-76
2022/10/21 10:37:48;;;;;;;;;6.00;4.75;;;;;19.97;72.02;100103.41;4954527;28;45980;-74
2022/10/21 10:40:33;;;;;;;;;8.00;5.25;;;;;19.99;72.11;100101.41;4954175;28;45677;-72
2022/10/21 10:43:10;;;;;;;;;6.50;6.25;;;;;20.02;71.91;100095.75;4954612;28;45602;-73
2022/10/21 10:45:35;;;;;;;;;6.50;2.75;;;;;20.01;71.33;100102.06;4954517;28;46592;-76
2022/10/21 10:48:05;;;;;;;;;4.00;3.75;;;;;20.03;71.35;100102.69;4954487;28;45771;-75
2022/10/21 10:50:36;;;;;;;;;5.75;4.00;;;;;20.08;70.90;100102.19;4953907;28;45750;-75
2022/10/21 10:53:27;;;;;;;;;3.00;2.50;;;;;20.11;70.91;100101.78;4954005;28;45836;-75
2022/10/21 10:56:24;;;;;;;;;4.50;3.75;;;;;20.13;70.54;100096.31;4954189;28;46359;-75
2022/10/21 10:58:57;;;;;;;;;6.00;4.00;;;;;20.11;70.43;100094.66;4954198;28;46635;-74
2022/10/21 11:01:31;;;;;;;;;2.00;0.25;;;;;20.20;70.16;100110.50;4954184;28;45602;-73
2022/10/21 11:04:05;;;;;;;;;3.75;3.00;;;;;20.22;70.21;100106.66;4954117;28;45652;-77
2022/10/21 11:06:41;;;;;;;;;4.25;3.25;;;;;20.25;70.05;100103.63;4954136;28;46510;-74
2022/10/21 11:09:07;;;;;;;;;2.75;2.00;;;;;20.27;69.72;100093.63;4954143;28;45896;-73
2022/10/21 11:11:42;;;;;;;;;3.25;3.25;;;;;20.30;69.67;100087.09;4953752;28;45817;-72
2022/10/21 11:14:16;;;;;;;;;3.00;2.25;;;;;20.33;69.21;100092.09;4954220;28;45553;-76
2022/10/21 11:16:53;;;;;;;;;4.00;3.00;;;;;20.37;68.81;100101.34;4953827;28;46709;-75
2022/10/21 11:22:56;;;;;;;;;3.00;3.00;;;;;20.44;68.21;100092.47;4953591;28;45578;-72
2022/10/21 11:25:32;;;;;;;;;7.25;2.75;;;;;20.48;67.83;100092.91;4954050;28;46213;-75
2022/10/21 11:28:26;;;;;;;;;4.25;3.00;;;;;20.53;67.92;100104.66;4952466;28;46520;-76
2022/10/21 11:31:10;;;;;;;;;2.50;2.50;;;;;20.57;66.60;100101.63;4953654;28;45956;-72
2022/10/21 11:34:14;;;;;;;;;2.00;2.00;;;;;20.59;66.18;100103.09;4956892;28;45677;-75
2022/10/21 11:40:26;;;;;;;;;4.00;2.00;;;;;20.67;64.67;100103.00;4859219;29;46195;-75
2022/10/21 11:42:55;;;;;;;;;2.00;2.00;;;;;20.70;63.98;100107.94;4821974;29;45971;-77
2022/10/21 11:45:24;;;;;;;;;2.75;0.75;;;;;20.75;63.70;100104.72;4806979;29;46087;-76
2022/10/21 11:48:05;;;;;;;;;2.00;1.00;;;;;20.76;63.25;100112.50;4822654;29;45800;-71
2022/10/21 11:51:02;;;;;;;;;3.00;1.75;;;;;20.81;63.54;100111.94;4822050;29;45896;-73
2022/10/21 11:53:57;;;;;;;;;2.00;1.00;;;;;20.83;62.32;100113.44;4823838;29;45655;-72
2022/10/21 11:56:57;;;;;;;;;2.00;1.00;;;;;20.87;61.46;100098.72;4840431;29;45735;-74
2022/10/21 11:59:53;;;;;;;;;1.25;0.50;;;;;20.89;61.01;100099.34;4840747;29;45869;-77
2022/10/21 12:02:24;;;;;;;;;3.75;0.75;;;;;20.94;60.52;100098.78;4840758;29;45744;-76
2022/10/21 12:08:19;;;;;;;;;1.50;0.00;;;;;21.03;59.63;100095.00;4840687;29;45713;-74
2022/10/21 12:11:11;;;;;;;;;0.00;0.00;;;;;21.06;59.69;100097.25;4869496;29;45930;-77
2022/10/21 12:13:48;;;;;;;;;0.50;0.00;;;;;21.12;58.69;100096.50;4896318;29;46173;-76
2022/10/21 12:16:24;;;;;;;;;1.50;0.50;;;;;21.15;58.58;100087.34;4896342;29;47998;-75
2022/10/21 12:18:53;;;;;;;;;0.00;0.00;;;;;21.19;58.58;100078.78;4898191;28;45789;-76
2022/10/21 12:24:54;;;;;;;;;1.00;0.50;;;;;21.28;57.52;100066.97;4936574;28;45542;-76
2022/10/21 12:27:44;;;;;;;;;1.00;0.00;;;;;21.33;58.28;100077.06;4936759;28;46345;-76
2022/10/21 12:30:23;;;;;;;;;1.25;0.75;;;;;21.32;57.42;100073.56;4936972;28;45570;-73
2022/10/21 12:33:23;;;;;;;;;1.00;0.50;;;;;21.32;56.83;100073.56;4967813;28;45642;-76
2022/10/21 12:35:56;;;;;;;;;2.00;0.75;;;;;21.34;56.23;100065.38;4936704;28;46526;-75
2022/10/21 12:38:43;;;;;;;;;1.50;0.75;;;;;21.37;56.26;100070.34;4936778;28;45919;-76
2022/10/21 12:41:32;;;;;;;;;1.00;0.25;;;;;21.37;55.81;100078.34;4936844;28;45702;-74
2022/10/21 12:44:03;;;;;;;;;0.25;0.25;;;;;21.38;55.72;100087.16;4936890;28;45711;-73
2022/10/21 12:46:36;;;;;;;;;2.00;1.00;;;;;21.40;56.00;100093.13;4936732;28;46434;-74
2022/10/21 12:49:17;;;;;;;;;2.00;0.75;;;;;21.42;55.35;100089.25;4936491;28;46865;-74
2022/10/21 12:51:56;;;;;;;;;1.75;0.75;;;;;21.44;55.75;100089.88;4936224;28;45703;-72
2022/10/21 12:54:26;;;;;;;;;0.75;0.75;;;;;21.41;55.30;100076.94;4945468;28;45820;-73
2022/10/21 12:57:01;;;;;;;;;1.75;1.00;;;;;21.44;55.11;100075.72;4955902;28;46436;-73
2022/10/21 12:59:38;;;;;;;;;3.00;0.75;;;;;21.49;55.00;100082.13;4955605;28;45835;-73
2022/10/21 13:02:04;;;;;;;;;1.00;0.50;;;;;21.52;55.22;100080.94;4955480;28;45598;-73
2022/10/21 13:04:32;;;;;;;;;0.50;0.00;;;;;21.52;55.45;100065.75;4956101;28;45752;-75
2022/10/21 13:07:24;;;;;;;;;0.00;0.00;;;;;21.58;55.08;100075.66;4955580;28;46480;-73
2022/10/21 13:09:55;;;;;;;;;0.50;0.00;;;;;21.60;54.92;100073.59;4955713;28;46741;-74
2022/10/21 13:12:21;;;;;;;;;2.75;0.00;;;;;21.62;54.46;100073.41;4955515;28;45584;-74
2022/10/21 13:14:53;;;;;;;;;1.75;0.00;;;;;21.62;54.30;100068.91;4955965;28;45663;-73
2022/10/21 13:17:21;;;;;;;;;1.50;0.75;;;;;21.61;54.84;100074.44;4955870;28;45653;-76
2022/10/21 13:23:13;;;;;;;;;2.75;0.75;;;;;21.60;54.38;100052.28;4955152;28;45742;-75
2022/10/21 13:25:38;;;;;;;;;0.75;0.50;;;;;21.65;54.72;100057.84;4955887;28;45543;-76